Google Maps JavaScript API Example
Pilot Flight Report # 94080 Submitted by : AST106 on 2020-05-28
Date: 2020-05-28Aircraft: ATR 72-500
Flight No.: ASC2484Distance (Nm): 287.82
Departure: TFFR - Le RaizetDestination: TJSJ - Luis Munoz Marin International
 TimeFuelWeightSpeeds  
Out (Taxi)0551Z15046 lbs91687 lbs Flight RulesIFR
Off (Takeoff)0551Z 91687 lbs162 ktsFlight LevelFL200
On (Landing)0656Z 86174 lbs116 ktsVSTD-269 ft/min
In (Ramp)0700Z9312 lbs85948 lbs ZFW76636 lbs
Flight1.10  -  1:055513 lbs  Pax0
Block1.15  -  1:095734 lbs  Cargo0
Departure WeatherTFFR 280551Z 17510KT 20SM SCT039 31/20 A2994
Destination WeatherTJSJ 280700Z 23306KT 20SM FEW032 SCT043 26/21 A2997
Flight Comments